Clackamas, Oregon
Current Conditions -  °F | °C
As of 5:53 PM on Saturday 22 Nov 2014 (Local Time) from KTTD Reporting Station
Scattered Clouds Scattered Clouds  
Wind Chill: 47°   Ceiling: Unl
Heat Index: 47°   Visibility: 10mi
Dew Point: 41°   Wind: 3mph
Humidity: 80%   Direction: 230°SW
Pressure: 30.11"   Gusts: NA
Location:  45.41°N, 122.55°W
Report Text: KTTD 230153Z 23003KT 10SM FEW037 FEW046 SCT055 08/05 A3011 RMK AO2 SLP195 T00830050
Loading
Personal Weather Stations






























Interactive Weather Map New forecast layout! Learn more

10-Day Weather Forecast

Advertisements
Track Severe Weather on mobile